createdAt,value
2022-12-31T00:01:50.684Z,9.13
2022-12-31T00:04:18.364Z,7.50
2022-12-31T00:06:46.220Z,9.82
2022-12-31T00:09:14.073Z,8.00
2022-12-31T00:11:43.295Z,7.60
2022-12-31T00:14:11.139Z,9.85
2022-12-31T00:16:41.044Z,11.98
2022-12-31T00:19:10.492Z,10.48
2022-12-31T00:21:38.566Z,12.27
2022-12-31T00:24:07.649Z,9.77
2022-12-31T00:26:35.955Z,9.20
2022-12-31T00:29:05.631Z,8.35
2022-12-31T00:31:34.655Z,9.80
2022-12-31T00:34:02.609Z,9.88
2022-12-31T00:36:31.932Z,8.93
2022-12-31T00:39:00.860Z,8.98
2022-12-31T00:41:29.122Z,7.82
2022-12-31T00:43:57.041Z,7.43
2022-12-31T00:46:26.535Z,9.00
2022-12-31T00:56:19.992Z,5.78
2022-12-31T00:58:47.894Z,6.18
2022-12-31T01:06:13.576Z,3.22
2022-12-31T01:08:41.278Z,2.70
2022-12-31T01:11:29.453Z,1.10
2022-12-31T01:16:27.234Z,1.45
2022-12-31T01:18:56.377Z,0.70
2022-12-31T01:21:24.188Z,0.70
2022-12-31T01:26:20.020Z,1.38
2022-12-31T01:28:47.956Z,0.68
2022-12-31T01:31:17.980Z,0.70
2022-12-31T01:33:46.605Z,1.80
2022-12-31T01:36:20.344Z,1.10
2022-12-31T01:38:53.587Z,1.30
2022-12-31T01:41:23.616Z,2.17
2022-12-31T01:43:54.244Z,1.73
2022-12-31T01:46:29.306Z,1.65
2022-12-31T01:48:59.364Z,1.35
2022-12-31T01:51:31.017Z,1.25
2022-12-31T01:53:59.496Z,3.70
2022-12-31T01:56:27.266Z,1.10
2022-12-31T01:58:56.704Z,1.90
2022-12-31T02:01:27.819Z,1.98
2022-12-31T02:03:56.530Z,0.73
2022-12-31T02:06:26.111Z,1.05
2022-12-31T02:08:55.216Z,0.90
2022-12-31T02:11:26.297Z,1.65
2022-12-31T02:16:31.891Z,1.38
2022-12-31T02:19:03.404Z,1.20
2022-12-31T02:21:43.711Z,1.08
2022-12-31T02:24:47.085Z,2.00
2022-12-31T02:27:20.830Z,1.10
2022-12-31T02:30:06.892Z,0.57
2022-12-31T02:32:45.379Z,1.05
2022-12-31T02:40:11.784Z,1.15
2022-12-31T02:42:39.578Z,1.10
2022-12-31T02:50:21.521Z,1.75
2022-12-31T02:52:57.321Z,0.80
2022-12-31T02:55:31.601Z,0.85
2022-12-31T02:58:06.097Z,1.70
2022-12-31T03:03:20.635Z,1.17
2022-12-31T03:05:52.603Z,0.98
2022-12-31T03:08:22.578Z,1.73
2022-12-31T03:10:50.310Z,2.25
2022-12-31T03:13:17.722Z,1.90
2022-12-31T03:21:02.629Z,3.70
2022-12-31T03:23:32.884Z,2.65
2022-12-31T03:26:00.058Z,1.42
2022-12-31T03:28:31.655Z,2.22
2022-12-31T03:31:02.137Z,2.22
2022-12-31T03:33:33.442Z,2.25
2022-12-31T03:36:04.515Z,2.45
2022-12-31T03:38:32.250Z,3.13
2022-12-31T03:41:00.013Z,2.53
2022-12-31T03:43:27.720Z,3.75
2022-12-31T03:45:58.212Z,3.38
2022-12-31T03:48:27.412Z,3.33
2022-12-31T03:50:55.131Z,4.00
2022-12-31T03:53:22.991Z,3.88
2022-12-31T03:55:53.105Z,4.47
2022-12-31T03:58:20.908Z,3.50
2022-12-31T04:00:48.791Z,4.57
2022-12-31T04:03:16.744Z,4.72
2022-12-31T04:05:45.941Z,5.55
2022-12-31T04:08:13.748Z,4.70
2022-12-31T04:10:41.450Z,6.47
2022-12-31T04:13:09.193Z,7.88
2022-12-31T04:15:36.955Z,6.53
2022-12-31T04:18:04.914Z,7.07
2022-12-31T04:20:32.629Z,8.10
2022-12-31T04:23:01.790Z,7.95
2022-12-31T04:25:29.551Z,9.00
2022-12-31T04:27:57.282Z,6.05
2022-12-31T04:30:25.062Z,7.55
2022-12-31T04:32:52.809Z,9.40
2022-12-31T04:35:20.628Z,5.90
2022-12-31T04:37:48.317Z,8.52
2022-12-31T04:40:17.546Z,7.82
2022-12-31T04:42:47.874Z,7.90
2022-12-31T04:45:15.688Z,7.45
2022-12-31T04:50:11.063Z,8.75
2022-12-31T04:52:42.913Z,7.15
2022-12-31T04:55:11.233Z,9.18
2022-12-31T04:57:40.510Z,8.88
2022-12-31T05:00:11.050Z,6.50
2022-12-31T05:02:39.234Z,8.48
2022-12-31T05:05:07.813Z,5.57
2022-12-31T05:07:38.527Z,7.57
2022-12-31T05:10:07.443Z,6.18
2022-12-31T05:12:35.168Z,8.27
2022-12-31T05:15:04.465Z,6.47
2022-12-31T05:17:32.292Z,7.63
2022-12-31T05:19:59.993Z,6.97
2022-12-31T05:22:30.357Z,8.13
2022-12-31T05:24:58.361Z,7.50
2022-12-31T05:27:26.711Z,9.52
2022-12-31T05:29:54.462Z,6.50
2022-12-31T05:32:23.594Z,8.45
2022-12-31T05:34:51.510Z,12.02
2022-12-31T05:37:19.228Z,12.15
2022-12-31T05:39:46.868Z,12.57
2022-12-31T05:42:14.682Z,9.82
2022-12-31T05:44:42.407Z,9.85
2022-12-31T05:47:10.288Z,10.98
2022-12-31T05:49:39.396Z,9.45
2022-12-31T05:52:07.842Z,12.98
2022-12-31T05:54:36.462Z,15.27
2022-12-31T05:57:04.125Z,11.13
2022-12-31T05:59:32.043Z,13.50
2022-12-31T06:01:59.753Z,11.07
2022-12-31T06:04:27.475Z,9.73
2022-12-31T06:06:56.652Z,13.65
2022-12-31T06:09:24.786Z,10.30
2022-12-31T06:11:52.529Z,12.82
2022-12-31T06:14:20.231Z,7.80
2022-12-31T06:16:47.958Z,6.32
2022-12-31T06:19:15.702Z,8.63
2022-12-31T06:21:43.524Z,6.70
2022-12-31T06:24:12.685Z,5.78
2022-12-31T06:26:40.413Z,5.38
2022-12-31T06:29:08.895Z,7.20
2022-12-31T06:31:36.637Z,6.45
2022-12-31T06:34:04.969Z,4.15
2022-12-31T06:39:00.215Z,3.72
2022-12-31T06:41:29.442Z,3.97
2022-12-31T06:43:57.167Z,2.63
2022-12-31T06:46:25.017Z,3.55
2022-12-31T06:48:53.176Z,3.72
2022-12-31T06:51:22.755Z,3.78
2022-12-31T06:53:51.595Z,3.38
2022-12-31T06:56:21.024Z,2.53
2022-12-31T07:01:30.763Z,2.67
2022-12-31T07:04:03.949Z,2.97
2022-12-31T07:06:34.706Z,1.63
2022-12-31T07:09:06.826Z,3.15
2022-12-31T07:11:42.079Z,2.28
2022-12-31T07:14:21.957Z,2.38
2022-12-31T07:16:58.019Z,1.92
2022-12-31T07:19:33.420Z,1.83
2022-12-31T07:22:01.735Z,1.60
2022-12-31T07:24:29.925Z,1.70
2022-12-31T07:27:20.133Z,1.90
2022-12-31T07:30:02.736Z,1.70
2022-12-31T07:32:44.059Z,3.72
2022-12-31T07:35:18.298Z,1.85
2022-12-31T07:37:50.990Z,1.45
2022-12-31T07:40:22.613Z,2.58
2022-12-31T07:43:01.831Z,1.73
2022-12-31T07:45:37.210Z,1.92
2022-12-31T07:48:05.571Z,1.60
2022-12-31T07:50:34.013Z,2.28
2022-12-31T07:53:02.206Z,2.97
2022-12-31T07:55:29.955Z,1.98
2022-12-31T08:05:48.842Z,1.40
2022-12-31T08:08:25.191Z,2.22
2022-12-31T08:11:02.065Z,5.73
2022-12-31T08:13:29.988Z,2.45
2022-12-31T08:15:59.488Z,0.93
2022-12-31T08:18:27.639Z,1.40
2022-12-31T08:21:03.385Z,1.58
2022-12-31T08:23:36.114Z,0.38
2022-12-31T08:26:14.794Z,0.32
2022-12-31T08:29:01.259Z,0.70
2022-12-31T08:31:36.087Z,1.15
2022-12-31T08:34:09.472Z,2.05
2022-12-31T08:36:44.664Z,1.25
2022-12-31T08:39:19.822Z,1.48
2022-12-31T08:41:49.472Z,3.28
2022-12-31T08:44:21.861Z,2.50
2022-12-31T08:46:55.326Z,4.03
2022-12-31T08:49:23.410Z,2.45
2022-12-31T08:51:51.582Z,2.85
2022-12-31T08:54:19.918Z,6.65
2022-12-31T08:56:51.313Z,3.45
2022-12-31T08:59:28.091Z,2.35
2022-12-31T09:02:15.750Z,1.52
2022-12-31T09:04:49.281Z,3.42
2022-12-31T09:07:20.005Z,1.58
2022-12-31T09:09:57.786Z,3.38
2022-12-31T09:12:30.738Z,5.45
2022-12-31T09:15:03.219Z,3.55
2022-12-31T09:17:41.269Z,3.67
2022-12-31T09:20:16.075Z,2.65
2022-12-31T09:22:44.198Z,3.53
2022-12-31T09:25:15.451Z,10.07
2022-12-31T09:27:47.601Z,6.57
2022-12-31T09:30:16.945Z,3.05
2022-12-31T09:32:58.661Z,2.33
2022-12-31T09:35:36.198Z,3.40
2022-12-31T09:38:11.288Z,3.50
2022-12-31T09:41:16.676Z,2.80
2022-12-31T09:44:21.418Z,3.10
2022-12-31T09:47:45.937Z,2.65
2022-12-31T09:50:51.130Z,2.58
2022-12-31T09:53:39.826Z,3.60
2022-12-31T09:56:13.130Z,7.63
2022-12-31T09:58:46.371Z,9.55
2022-12-31T10:01:24.378Z,5.65
2022-12-31T10:04:36.832Z,4.43
2022-12-31T10:07:14.500Z,5.88
2022-12-31T10:09:53.587Z,7.13
2022-12-31T10:12:34.354Z,6.38
2022-12-31T10:15:11.181Z,9.20
2022-12-31T10:17:50.482Z,6.68
2022-12-31T10:20:28.589Z,10.02
2022-12-31T10:23:19.646Z,30.90
2022-12-31T10:26:02.467Z,28.70
2022-12-31T10:28:32.740Z,16.45
2022-12-31T10:31:09.500Z,10.35
2022-12-31T10:33:43.759Z,9.85
2022-12-31T10:36:20.612Z,9.95
2022-12-31T10:38:59.431Z,6.35
2022-12-31T10:42:06.589Z,6.70
2022-12-31T10:47:56.601Z,13.95
2022-12-31T10:51:02.735Z,12.55
2022-12-31T10:54:09.218Z,6.68
2022-12-31T10:56:57.294Z,13.10
2022-12-31T10:59:54.130Z,11.57
2022-12-31T11:03:09.116Z,12.63
2022-12-31T11:06:10.931Z,10.65
2022-12-31T11:08:52.861Z,11.95
2022-12-31T11:11:30.011Z,23.52
2022-12-31T11:14:39.030Z,9.98
2022-12-31T11:17:20.946Z,86.18
2022-12-31T11:19:57.206Z,13.30
2022-12-31T11:22:39.811Z,8.95
2022-12-31T11:25:28.699Z,8.18
2022-12-31T11:28:18.210Z,27.40
2022-12-31T11:31:12.893Z,18.70
2022-12-31T11:33:52.484Z,5.30
2022-12-31T11:36:26.195Z,7.25
2022-12-31T11:40:42.534Z,7.53
2022-12-31T11:46:12.356Z,11.70
2022-12-31T11:48:45.091Z,6.60
2022-12-31T11:51:29.015Z,5.93
2022-12-31T11:54:15.012Z,4.20
2022-12-31T11:56:48.231Z,8.18
2022-12-31T11:59:19.607Z,4.97
2022-12-31T12:01:52.904Z,5.80
2022-12-31T12:04:20.659Z,4.90
2022-12-31T12:06:48.346Z,3.92
2022-12-31T12:09:27.755Z,4.40
2022-12-31T12:12:18.246Z,13.48
2022-12-31T12:14:47.052Z,4.68
2022-12-31T12:17:17.204Z,6.75
2022-12-31T12:19:47.148Z,7.07
2022-12-31T12:22:21.074Z,6.88
2022-12-31T12:24:54.602Z,4.90
2022-12-31T12:27:25.842Z,4.32
2022-12-31T12:29:53.519Z,5.88
2022-12-31T12:32:24.901Z,7.60
2022-12-31T12:34:53.248Z,5.00
2022-12-31T12:37:29.923Z,5.50
2022-12-31T12:39:58.653Z,8.57
2022-12-31T12:42:27.999Z,7.15
2022-12-31T12:45:03.098Z,6.90
2022-12-31T12:47:31.221Z,7.18
2022-12-31T12:50:00.011Z,5.88
2022-12-31T12:52:38.926Z,3.67
2022-12-31T12:55:16.729Z,7.60
2022-12-31T12:57:50.399Z,3.17
2022-12-31T13:00:20.906Z,4.75
2022-12-31T13:03:15.150Z,6.90
2022-12-31T13:05:51.270Z,3.85
2022-12-31T13:08:27.668Z,6.20
2022-12-31T13:13:41.687Z,27.70
2022-12-31T13:16:13.253Z,8.07
2022-12-31T13:18:49.409Z,17.33
2022-12-31T13:21:33.807Z,8.27
2022-12-31T13:24:08.489Z,15.48
2022-12-31T13:26:40.678Z,5.05
2022-12-31T13:29:17.016Z,7.43
2022-12-31T13:34:14.491Z,7.40
2022-12-31T13:36:43.709Z,4.35
2022-12-31T13:39:16.801Z,7.10
2022-12-31T13:41:49.743Z,6.65
2022-12-31T13:44:24.421Z,6.88
2022-12-31T13:46:55.989Z,14.40
2022-12-31T13:49:28.361Z,14.27
2022-12-31T13:52:01.519Z,7.72
2022-12-31T13:54:36.013Z,9.73
2022-12-31T13:57:06.811Z,6.45
2022-12-31T13:59:38.736Z,6.68
2022-12-31T14:02:14.455Z,14.70
2022-12-31T14:04:46.368Z,9.43
2022-12-31T14:07:17.899Z,14.30
2022-12-31T14:09:46.494Z,13.25
2022-12-31T14:12:25.549Z,14.90
2022-12-31T14:15:41.068Z,12.50
2022-12-31T14:18:15.976Z,10.45
2022-12-31T14:20:48.440Z,7.75
2022-12-31T14:23:23.302Z,14.15
2022-12-31T14:25:53.906Z,10.25
2022-12-31T14:28:26.630Z,6.40
2022-12-31T14:32:57.345Z,11.07
2022-12-31T14:35:40.663Z,14.73
2022-12-31T14:38:15.652Z,14.93
2022-12-31T14:40:51.127Z,12.43
2022-12-31T14:43:24.279Z,19.13
2022-12-31T14:46:02.035Z,15.55
2022-12-31T14:48:37.795Z,10.07
2022-12-31T14:51:05.986Z,12.85
2022-12-31T14:53:33.788Z,12.80
2022-12-31T14:56:02.970Z,10.27
2022-12-31T14:58:34.847Z,10.32
2022-12-31T15:01:08.410Z,65.53
2022-12-31T15:03:45.073Z,17.15
2022-12-31T15:06:28.984Z,12.25
2022-12-31T15:09:08.287Z,10.05
2022-12-31T15:11:46.106Z,6.20
2022-12-31T15:14:38.567Z,6.30
2022-12-31T15:17:14.483Z,8.32
2022-12-31T15:20:17.591Z,14.75
2022-12-31T15:22:46.753Z,8.30
2022-12-31T15:25:30.190Z,8.52
2022-12-31T15:28:02.238Z,11.95
2022-12-31T15:30:36.989Z,7.55
2022-12-31T15:33:07.015Z,4.30
2022-12-31T15:35:48.464Z,9.70
2022-12-31T15:38:32.438Z,9.60
2022-12-31T15:41:00.810Z,12.32
2022-12-31T15:43:35.037Z,11.05
2022-12-31T15:46:03.422Z,10.95
2022-12-31T15:48:43.077Z,13.75
2022-12-31T15:51:17.823Z,16.48
2022-12-31T15:53:52.179Z,36.22
2022-12-31T15:56:22.816Z,33.78
2022-12-31T15:58:59.792Z,10.63
2022-12-31T16:01:30.933Z,13.43
2022-12-31T16:04:00.480Z,16.77
2022-12-31T16:06:31.959Z,19.23
2022-12-31T16:08:59.747Z,32.72
2022-12-31T16:11:30.297Z,13.32
2022-12-31T16:13:58.987Z,7.38
2022-12-31T16:16:28.999Z,12.13
2022-12-31T16:18:57.496Z,10.38
2022-12-31T16:21:30.259Z,10.13
2022-12-31T16:23:59.180Z,9.05
2022-12-31T16:26:49.334Z,28.05
2022-12-31T16:29:18.541Z,17.83
2022-12-31T16:31:47.037Z,18.50
2022-12-31T16:34:17.809Z,7.70
2022-12-31T16:36:56.257Z,10.68
2022-12-31T16:39:30.191Z,19.60
2022-12-31T16:42:19.406Z,11.55
2022-12-31T16:44:47.883Z,11.45
2022-12-31T16:49:44.667Z,26.20
2022-12-31T16:52:26.373Z,9.35
2022-12-31T16:54:54.327Z,7.65
2022-12-31T16:57:25.806Z,8.95
2022-12-31T16:59:56.489Z,7.30
2022-12-31T17:02:27.657Z,10.63
2022-12-31T17:04:56.437Z,11.13
2022-12-31T17:07:37.148Z,10.10
2022-12-31T17:10:16.494Z,4.93
2022-12-31T17:13:25.463Z,9.63
2022-12-31T17:15:41.053Z,7.40
2022-12-31T17:18:09.244Z,10.40
2022-12-31T17:20:38.036Z,8.77
2022-12-31T17:23:08.463Z,7.70
2022-12-31T17:25:38.407Z,4.28
2022-12-31T17:28:17.562Z,7.13
2022-12-31T17:30:45.488Z,6.20
2022-12-31T17:33:31.170Z,13.05
2022-12-31T17:36:16.249Z,7.15
2022-12-31T17:38:44.312Z,18.88
2022-12-31T17:41:17.227Z,20.40
2022-12-31T17:43:46.225Z,14.15
2022-12-31T17:46:15.938Z,8.20
2022-12-31T17:48:45.060Z,4.85
2022-12-31T17:51:12.807Z,14.75
2022-12-31T17:53:40.535Z,13.48
2022-12-31T17:56:14.241Z,4.68
2022-12-31T17:58:46.143Z,5.65
2022-12-31T18:01:15.315Z,7.75
2022-12-31T18:03:43.759Z,10.82
2022-12-31T18:06:16.489Z,6.63
2022-12-31T18:08:44.681Z,5.32
2022-12-31T18:11:17.331Z,5.47
2022-12-31T18:13:46.862Z,9.35
2022-12-31T18:18:43.753Z,7.75
2022-12-31T18:21:17.524Z,7.68
2022-12-31T18:23:47.135Z,6.07
2022-12-31T18:26:16.452Z,5.70
2022-12-31T18:28:45.834Z,7.55
2022-12-31T18:31:15.646Z,10.07
2022-12-31T18:34:19.633Z,7.95
2022-12-31T18:36:47.628Z,7.72
2022-12-31T18:39:15.283Z,5.18
2022-12-31T18:41:45.921Z,7.32
2022-12-31T18:44:14.814Z,5.57
2022-12-31T18:46:42.702Z,15.43
2022-12-31T18:56:35.290Z,5.85
2022-12-31T18:59:03.518Z,4.60
2022-12-31T19:01:32.938Z,8.23
2022-12-31T19:04:02.094Z,6.78
2022-12-31T19:06:31.167Z,3.25
2022-12-31T19:09:01.124Z,5.18
2022-12-31T19:11:29.030Z,4.30
2022-12-31T19:13:56.684Z,9.90
2022-12-31T19:16:24.420Z,7.43
2022-12-31T19:18:52.208Z,6.20
2022-12-31T19:21:22.372Z,4.00
2022-12-31T19:23:50.832Z,8.27
2022-12-31T19:26:22.553Z,10.48
2022-12-31T19:28:51.683Z,4.45
2022-12-31T19:31:19.583Z,7.63
2022-12-31T19:33:47.290Z,7.65
2022-12-31T19:36:16.352Z,8.20
2022-12-31T19:38:44.675Z,5.43
2022-12-31T19:43:44.264Z,5.88
2022-12-31T19:48:40.735Z,10.07
2022-12-31T19:51:10.137Z,7.25
2022-12-31T19:53:37.772Z,6.63
2022-12-31T19:56:06.195Z,5.03
2022-12-31T20:03:32.562Z,5.20
2022-12-31T20:08:31.591Z,7.68
2022-12-31T20:11:00.129Z,9.35
2022-12-31T20:15:55.358Z,12.10
2022-12-31T20:18:24.447Z,10.65
2022-12-31T20:20:55.855Z,9.82
2022-12-31T20:23:24.018Z,5.28
2022-12-31T20:25:58.089Z,9.98
2022-12-31T20:28:25.843Z,10.80
2022-12-31T20:30:53.609Z,8.85
2022-12-31T20:33:21.604Z,10.90
2022-12-31T20:38:18.404Z,7.82
2022-12-31T20:40:47.067Z,8.85
2022-12-31T20:43:15.139Z,13.05
2022-12-31T20:45:42.902Z,11.68
2022-12-31T20:48:10.852Z,8.45
2022-12-31T20:55:38.489Z,8.60
2022-12-31T21:00:34.155Z,7.57
2022-12-31T21:03:14.157Z,8.55
2022-12-31T21:10:48.911Z,9.02
2022-12-31T21:18:15.242Z,7.57
2022-12-31T21:20:46.998Z,7.72
2022-12-31T21:23:14.969Z,8.98
2022-12-31T21:25:43.037Z,9.30
2022-12-31T21:28:11.195Z,8.50
2022-12-31T21:30:39.428Z,10.07
2022-12-31T21:33:07.507Z,5.93
2022-12-31T21:35:50.116Z,19.52
2022-12-31T21:38:21.316Z,8.75
2022-12-31T21:40:49.556Z,9.52
2022-12-31T21:43:17.396Z,7.78
2022-12-31T21:45:45.565Z,9.75
2022-12-31T21:48:25.078Z,8.80
2022-12-31T21:50:56.274Z,9.90
2022-12-31T21:53:31.905Z,13.88
2022-12-31T21:56:09.024Z,8.85
2022-12-31T21:58:37.492Z,13.70
2022-12-31T22:01:23.199Z,11.35
2022-12-31T22:03:51.028Z,9.13
2022-12-31T22:06:21.961Z,9.07
2022-12-31T22:08:51.200Z,8.93
2022-12-31T22:11:20.735Z,7.72
2022-12-31T22:13:49.423Z,14.20
2022-12-31T22:16:18.443Z,8.27
2022-12-31T22:18:46.153Z,30.52
2022-12-31T22:21:18.794Z,10.13
2022-12-31T22:23:49.743Z,8.52
2022-12-31T22:26:18.945Z,9.05
2022-12-31T22:28:47.321Z,10.55
2022-12-31T22:31:16.250Z,10.73
2022-12-31T22:33:44.334Z,8.05
2022-12-31T22:36:13.833Z,10.90
2022-12-31T22:38:41.786Z,12.15
2022-12-31T22:41:13.119Z,11.75
2022-12-31T22:43:42.273Z,10.80
2022-12-31T22:46:11.148Z,11.57
2022-12-31T22:48:39.474Z,6.75
2022-12-31T22:51:08.125Z,7.78
2022-12-31T22:53:36.587Z,7.32
2022-12-31T22:56:04.372Z,9.80
2022-12-31T22:58:33.485Z,11.63
2022-12-31T23:01:01.392Z,9.55
2022-12-31T23:03:29.177Z,9.68
2022-12-31T23:05:56.943Z,44.83
2022-12-31T23:08:24.698Z,30.73
2022-12-31T23:11:05.722Z,64.50
2022-12-31T23:13:56.513Z,54.22
2022-12-31T23:16:42.381Z,66.00
2022-12-31T23:19:27.862Z,54.67
2022-12-31T23:22:13.068Z,50.67
2022-12-31T23:24:40.877Z,28.80
2022-12-31T23:27:10.073Z,49.15
2022-12-31T23:29:46.482Z,49.78
2022-12-31T23:32:15.376Z,24.98
2022-12-31T23:34:43.850Z,30.45
2022-12-31T23:37:11.594Z,29.23
2022-12-31T23:39:39.365Z,22.15
2022-12-31T23:42:07.216Z,24.60
2022-12-31T23:44:34.964Z,19.38
2022-12-31T23:47:04.348Z,18.92
2022-12-31T23:49:32.167Z,18.77
2022-12-31T23:51:59.912Z,18.90
2022-12-31T23:54:27.669Z,16.98
2022-12-31T23:56:55.513Z,14.05
